Time;durP1;ratioP1;P1;durP2;ratioP2;P2;SDS_P1;SDS_P2;PMS_P1;PMS_P2;Temp;Humidity;BMP_temperature;BMP_pressure;BME280_temperature;BME280_humidity;BME280_pressure;Samples;Min_cycle;Max_cycle;Signal;HPM_P1;HPM_P2
2022/11/05 00:09:28;;;;;;;4.18;1.90;;;6.90;99.90;;;;;;5025324;28;20067;-76
2022/11/05 00:11:16;;;;;;;7.13;2.22;;;7.80;99.90;;;;;;5026290;28;20049;-76
2022/11/05 00:16:42;;;;;;;7.60;2.10;;;7.90;99.90;;;;;;5042279;28;20032;-77
2022/11/05 00:19:09;;;;;;;8.25;2.67;;;8.00;99.90;;;;;;5009890;28;20076;-76
2022/11/05 00:27:08;;;;;;;4.30;1.40;;;8.10;99.90;;;;;;5043036;28;20048;-76
2022/11/05 00:29:35;;;;;;;4.13;1.33;;;8.10;99.90;;;;;;5028345;28;20130;-77
2022/11/05 00:32:02;;;;;;;4.75;1.63;;;8.10;99.90;;;;;;5043357;28;20052;-74
2022/11/05 00:34:28;;;;;;;3.53;1.45;;;8.10;99.90;;;;;;5041552;28;20052;-73
2022/11/05 00:36:55;;;;;;;5.47;1.40;;;8.10;99.90;;;;;;5043608;28;20065;-75
2022/11/05 00:39:21;;;;;;;3.10;1.40;;;8.00;99.90;;;;;;5009984;28;20402;-72
2022/11/05 00:44:58;;;;;;;1.90;0.90;;;8.00;99.90;;;;;;5025964;28;20068;-76
2022/11/05 00:50:04;;;;;;;3.88;0.95;;;7.70;99.90;;;;;;5040279;28;20044;-77
2022/11/05 00:55:15;;;;;;;3.45;1.00;;;7.60;99.90;;;;;;5044233;28;20032;-75
2022/11/05 00:57:41;;;;;;;3.50;1.05;;;7.60;99.90;;;;;;5046429;28;20057;-77
2022/11/05 01:00:08;;;;;;;4.70;1.13;;;7.50;99.90;;;;;;5040057;28;20033;-77
2022/11/05 01:02:34;;;;;;;2.13;1.02;;;7.40;99.90;;;;;;5009750;28;20483;-77
2022/11/05 01:05:01;;;;;;;5.35;1.20;;;7.40;99.90;;;;;;5029365;28;20501;-76
2022/11/05 01:07:27;;;;;;;3.65;0.90;;;7.30;99.90;;;;;;5043092;28;20036;-76
2022/11/05 01:09:53;;;;;;;3.85;0.90;;;7.30;99.90;;;;;;5024093;28;20040;-77
2022/11/05 01:12:19;;;;;;;4.50;1.05;;;7.30;99.90;;;;;;5023647;28;20037;-77
2022/11/05 01:14:46;;;;;;;3.70;1.05;;;7.30;99.90;;;;;;5024503;28;20032;-77
2022/11/05 01:17:12;;;;;;;2.85;1.02;;;7.20;99.90;;;;;;5028075;28;20044;-74
2022/11/05 01:19:38;;;;;;;4.68;0.90;;;7.20;99.90;;;;;;5043085;28;20035;-77
2022/11/05 01:22:04;;;;;;;2.58;0.80;;;7.10;99.90;;;;;;5007015;28;20048;-74
2022/11/05 01:24:31;;;;;;;2.55;0.93;;;7.00;99.90;;;;;;5027094;28;20410;-76
2022/11/05 01:26:57;;;;;;;4.45;1.10;;;7.00;99.90;;;;;;5043761;28;20029;-75
2022/11/05 01:29:24;;;;;;;2.47;1.30;;;6.90;99.90;;;;;;5040835;28;20036;-77
2022/11/05 01:31:50;;;;;;;5.68;1.38;;;6.90;99.90;;;;;;5041934;28;20040;-77
2022/11/05 01:34:16;;;;;;;2.03;1.30;;;6.80;99.90;;;;;;5038356;28;20037;-76
2022/11/05 01:36:43;;;;;;;4.80;1.50;;;6.70;99.90;;;;;;5041635;28;20048;-76
2022/11/05 01:39:09;;;;;;;2.83;1.38;;;6.70;99.90;;;;;;5008517;28;20124;-77
2022/11/05 01:41:35;;;;;;;3.95;1.85;;;6.70;99.90;;;;;;5023241;28;20037;-77
2022/11/05 01:44:02;;;;;;;4.20;1.90;;;6.60;99.90;;;;;;5021517;28;20048;-76
2022/11/05 01:46:37;;;;;;;6.00;1.33;;;6.60;99.90;;;;;;5024137;28;20045;-74
2022/11/05 01:49:28;;;;;;;5.82;1.98;;;6.60;99.90;;;;;;5023139;28;20028;-77
2022/11/05 01:51:56;;;;;;;6.70;2.13;;;6.50;99.90;;;;;;5042827;28;20036;-76
2022/11/05 01:54:26;;;;;;;3.75;1.35;;;6.50;99.90;;;;;;5022071;28;20048;-76
2022/11/05 01:56:57;;;;;;;3.78;1.08;;;6.50;99.90;;;;;;5023942;28;20398;-73
2022/11/05 01:59:32;;;;;;;2.92;1.30;;;6.50;99.90;;;;;;5023575;28;20053;-76
2022/11/05 02:02:00;;;;;;;5.18;1.73;;;6.40;99.90;;;;;;5013663;28;20029;-76
2022/11/05 02:04:31;;;;;;;3.85;1.38;;;6.40;99.90;;;;;;5038813;28;20037;-74
2022/11/05 02:06:58;;;;;;;4.68;2.25;;;6.40;99.90;;;;;;5040717;28;20033;-76
2022/11/05 02:09:43;;;;;;;3.35;1.92;;;6.30;99.90;;;;;;5023905;28;20036;-76
2022/11/05 02:12:11;;;;;;;3.25;1.83;;;6.30;99.90;;;;;;5024602;28;20052;-76
2022/11/05 02:14:38;;;;;;;3.40;1.98;;;6.30;99.90;;;;;;5040283;28;20530;-77
2022/11/05 02:17:06;;;;;;;3.25;1.58;;;6.40;99.90;;;;;;5040368;28;20033;-77
2022/11/05 02:19:33;;;;;;;3.50;2.35;;;6.40;99.90;;;;;;5006456;28;20037;-75
2022/11/05 02:22:22;;;;;;;4.43;1.60;;;6.30;99.90;;;;;;5041144;28;20033;-77
2022/11/05 02:25:38;;;;;;;3.25;1.92;;;6.30;99.90;;;;;;5008333;28;20037;-78
2022/11/05 02:28:34;;;;;;;4.05;1.75;;;6.30;99.90;;;;;;5007764;28;20044;-76
2022/11/05 02:31:40;;;;;;;4.43;1.77;;;6.30;99.90;;;;;;5027687;28;20029;-77
2022/11/05 02:34:42;;;;;;;4.97;2.53;;;6.30;99.90;;;;;;5038842;28;20119;-77
2022/11/05 02:37:45;;;;;;;4.95;2.47;;;6.20;99.90;;;;;;5023682;28;20043;-76
2022/11/05 02:40:27;;;;;;;5.90;2.03;;;6.20;99.90;;;;;;5022484;28;20036;-77
2022/11/05 02:42:54;;;;;;;3.15;1.35;;;6.20;99.90;;;;;;5022977;28;20044;-75
2022/11/05 02:45:47;;;;;;;5.95;2.50;;;6.20;99.90;;;;;;5039931;28;20061;-74
2022/11/05 02:48:20;;;;;;;3.60;2.30;;;6.10;99.90;;;;;;5011646;28;20052;-77
2022/11/05 02:50:58;;;;;;;3.53;2.40;;;6.10;99.90;;;;;;5038432;28;20041;-77
2022/11/05 02:53:40;;;;;;;7.07;2.70;;;6.10;99.90;;;;;;5005750;28;20039;-76
2022/11/05 02:56:17;;;;;;;3.88;2.67;;;6.10;99.90;;;;;;5022024;28;20048;-78
2022/11/05 02:58:43;;;;;;;5.93;2.70;;;6.10;99.90;;;;;;5029168;28;20040;-77
2022/11/05 03:01:13;;;;;;;3.03;2.40;;;6.10;99.90;;;;;;5041723;28;20468;-76
2022/11/05 03:03:44;;;;;;;3.20;2.22;;;6.00;99.90;;;;;;5025634;28;20041;-74
2022/11/05 03:06:38;;;;;;;3.60;2.80;;;6.00;99.90;;;;;;5039232;28;20037;-77
2022/11/05 03:09:40;;;;;;;2.40;1.70;;;6.00;99.90;;;;;;5008451;28;20032;-77
2022/11/05 03:12:25;;;;;;;5.28;2.67;;;6.00;99.90;;;;;;5026140;28;20393;-74
2022/11/05 03:15:15;;;;;;;6.53;4.30;;;6.00;99.90;;;;;;5046527;28;20037;-76
2022/11/05 03:18:05;;;;;;;6.57;3.75;;;5.90;99.90;;;;;;5043795;28;20041;-77
2022/11/05 03:20:44;;;;;;;6.72;3.78;;;5.90;99.90;;;;;;5043345;28;20036;-75
2022/11/05 03:23:35;;;;;;;4.95;2.95;;;5.90;99.90;;;;;;5026876;28;20390;-75
2022/11/05 03:26:20;;;;;;;4.53;3.92;;;5.90;99.90;;;;;;5048472;28;20510;-75
2022/11/05 03:28:54;;;;;;;5.65;3.65;;;5.90;99.90;;;;;;5025708;28;20056;-77
2022/11/05 03:31:24;;;;;;;5.43;3.50;;;5.90;99.90;;;;;;5025924;28;20048;-77
2022/11/05 03:33:52;;;;;;;5.68;3.63;;;6.00;99.90;;;;;;5026165;28;20040;-77
2022/11/05 03:36:32;;;;;;;6.72;4.05;;;6.00;99.90;;;;;;5045047;28;20896;-77
2022/11/05 03:39:03;;;;;;;4.53;2.85;;;6.00;99.90;;;;;;5029612;28;20040;-76
2022/11/05 03:41:33;;;;;;;3.47;3.03;;;6.00;99.90;;;;;;5043995;28;20044;-77
2022/11/05 03:44:04;;;;;;;7.55;3.38;;;6.00;99.90;;;;;;5026358;28;20037;-74
2022/11/05 03:46:40;;;;;;;5.25;3.10;;;6.00;99.90;;;;;;5013227;28;20033;-76
2022/11/05 03:49:11;;;;;;;6.70;4.22;;;6.00;99.90;;;;;;5028097;28;20040;-76
2022/11/05 03:51:47;;;;;;;5.28;3.03;;;6.00;99.90;;;;;;5025888;28;20056;-77
2022/11/05 03:54:14;;;;;;;5.68;2.92;;;6.00;99.90;;;;;;5012788;28;20438;-77
2022/11/05 03:56:52;;;;;;;6.38;3.80;;;6.10;99.90;;;;;;5045996;28;20045;-76
2022/11/05 03:59:20;;;;;;;6.10;3.30;;;6.10;99.90;;;;;;5024738;28;20514;-77
2022/11/05 04:01:46;;;;;;;7.72;3.13;;;6.00;99.90;;;;;;5024734;28;20040;-76
2022/11/05 04:04:13;;;;;;;6.40;2.78;;;6.00;99.90;;;;;;5041194;28;20033;-76
2022/11/05 04:14:54;;;;;;;5.75;3.75;;;6.00;99.90;;;;;;5042382;28;20492;-77
2022/11/05 04:17:21;;;;;;;8.63;3.75;;;5.90;99.90;;;;;;5025407;28;20052;-74
2022/11/05 04:25:20;;;;;;;5.07;2.30;;;5.90;99.90;;;;;;5025855;28;20048;-76
2022/11/05 04:27:47;;;;;;;5.57;2.42;;;5.90;99.90;;;;;;5008898;28;20044;-76
2022/11/05 04:30:18;;;;;;;6.78;3.90;;;5.90;99.90;;;;;;5039835;28;20427;-78
2022/11/05 04:33:10;;;;;;;8.43;5.63;;;5.90;99.90;;;;;;5041543;28;20045;-75
2022/11/05 04:35:39;;;;;;;5.70;3.60;;;5.90;99.90;;;;;;5042600;28;20360;-77
2022/11/05 04:38:08;;;;;;;5.05;2.85;;;5.90;99.90;;;;;;5041577;28;20484;-76
2022/11/05 04:40:34;;;;;;;7.55;4.45;;;5.90;99.90;;;;;;5040382;28;20032;-76
2022/11/05 04:43:01;;;;;;;9.02;4.15;;;5.90;99.90;;;;;;5042364;28;20045;-76
2022/11/05 04:45:30;;;;;;;5.97;3.92;;;5.90;99.90;;;;;;5043838;28;20434;-75
2022/11/05 04:47:56;;;;;;;6.72;4.38;;;5.90;99.90;;;;;;5025650;28;20044;-75
2022/11/05 04:50:22;;;;;;;6.78;3.90;;;5.80;99.90;;;;;;5023563;28;20059;-77
2022/11/05 04:52:49;;;;;;;4.20;2.90;;;5.80;99.90;;;;;;5041252;28;20041;-76
2022/11/05 04:55:15;;;;;;;4.63;3.55;;;5.80;99.90;;;;;;5025603;28;20048;-76
2022/11/05 04:57:42;;;;;;;6.53;4.45;;;5.80;99.90;;;;;;5024334;28;20041;-77
2022/11/05 05:00:10;;;;;;;4.95;3.03;;;5.80;99.90;;;;;;5006242;28;20037;-78
2022/11/05 05:02:36;;;;;;;6.25;3.85;;;5.80;99.90;;;;;;5025996;28;20033;-77
2022/11/05 05:05:02;;;;;;;5.28;4.13;;;5.70;99.90;;;;;;5041309;28;20029;-77
2022/11/05 05:07:29;;;;;;;8.00;4.50;;;5.70;99.90;;;;;;5040915;28;20044;-76
2022/11/05 05:09:55;;;;;;;4.18;3.08;;;5.70;99.90;;;;;;5006688;28;20914;-74
2022/11/05 05:12:22;;;;;;;9.68;4.75;;;5.70;99.90;;;;;;5024552;28;20041;-77
2022/11/05 05:14:48;;;;;;;7.30;4.80;;;5.70;99.90;;;;;;5008791;28;20036;-77
2022/11/05 05:17:15;;;;;;;7.20;5.15;;;5.70;99.90;;;;;;5023972;28;20048;-76
2022/11/05 05:22:27;;;;;;;8.50;4.38;;;5.60;99.90;;;;;;5023672;28;20045;-77
2022/11/05 05:24:55;;;;;;;6.53;4.05;;;5.50;99.90;;;;;;5027264;28;20040;-76
2022/11/05 05:27:23;;;;;;;4.78;4.03;;;5.50;99.90;;;;;;5025103;28;20037;-77
2022/11/05 05:29:49;;;;;;;9.20;5.88;;;5.50;99.90;;;;;;5039729;28;20037;-74
2022/11/05 05:32:15;;;;;;;4.75;4.15;;;5.50;99.90;;;;;;5024724;28;20562;-76
2022/11/05 05:34:42;;;;;;;7.18;3.83;;;5.50;99.90;;;;;;5025175;28;20033;-79
2022/11/05 05:37:08;;;;;;;8.38;5.63;;;5.50;99.90;;;;;;5044900;28;20045;-77
2022/11/05 05:39:34;;;;;;;7.30;5.00;;;5.50;99.90;;;;;;5030165;28;20032;-77
2022/11/05 05:42:01;;;;;;;3.75;2.90;;;5.50;99.90;;;;;;5027790;28;20029;-78
2022/11/05 05:44:27;;;;;;;4.93;3.72;;;5.40;99.90;;;;;;5044248;28;20033;-76
2022/11/05 05:46:54;;;;;;;8.38;5.18;;;5.50;99.90;;;;;;5029962;28;21242;-76
2022/11/05 05:49:20;;;;;;;7.75;5.88;;;5.40;99.90;;;;;;5042584;28;20060;-77
2022/11/05 05:51:48;;;;;;;8.18;6.72;;;5.40;99.90;;;;;;5011105;28;20052;-76
2022/11/05 05:54:15;;;;;;;7.40;5.35;;;5.40;99.90;;;;;;5023714;28;20041;-77
2022/11/05 05:56:45;;;;;;;7.82;5.78;;;5.40;99.90;;;;;;5040163;28;20072;-77
2022/11/05 05:59:11;;;;;;;9.07;7.70;;;5.40;99.90;;;;;;5028271;28;20041;-77
2022/11/05 06:01:38;;;;;;;13.98;8.07;;;5.40;99.90;;;;;;5025924;28;20039;-76
2022/11/05 06:04:04;;;;;;;11.95;6.40;;;5.40;99.90;;;;;;5040956;28;20044;-77
2022/11/05 06:06:30;;;;;;;7.25;6.45;;;5.40;99.90;;;;;;5048530;28;20041;-76
2022/11/05 06:08:57;;;;;;;9.95;7.53;;;5.40;99.90;;;;;;5043553;28;20037;-75
2022/11/05 06:11:23;;;;;;;7.28;5.22;;;5.40;99.90;;;;;;5039239;28;20045;-77
2022/11/05 06:13:50;;;;;;;7.50;6.20;;;5.50;99.90;;;;;;5009520;28;20044;-77
2022/11/05 06:16:18;;;;;;;7.63;5.90;;;5.40;99.90;;;;;;5042746;28;20048;-77
2022/11/05 06:18:45;;;;;;;13.70;9.35;;;5.40;99.90;;;;;;5024314;28;20041;-77
2022/11/05 06:21:13;;;;;;;8.32;7.22;;;5.50;99.90;;;;;;5023770;28;20025;-77
2022/11/05 06:23:41;;;;;;;12.80;8.90;;;5.50;99.90;;;;;;5040759;28;20518;-78
2022/11/05 06:26:11;;;;;;;10.95;8.68;;;5.40;99.90;;;;;;5028694;28;20032;-78
2022/11/05 06:28:37;;;;;;;8.73;6.53;;;5.50;99.90;;;;;;5041585;28;20095;-77
2022/11/05 06:31:04;;;;;;;9.88;7.55;;;5.50;99.90;;;;;;5040155;28;20040;-75
2022/11/05 06:33:30;;;;;;;9.07;7.35;;;5.50;99.90;;;;;;5041664;28;20041;-78
2022/11/05 06:35:58;;;;;;;11.15;7.97;;;5.50;99.90;;;;;;5044054;28;21037;-77
2022/11/05 06:38:24;;;;;;;9.93;7.00;;;5.50;99.90;;;;;;5025816;28;20040;-74
2022/11/05 06:40:50;;;;;;;10.93;7.57;;;5.50;99.90;;;;;;5007045;28;20028;-77
2022/11/05 06:43:17;;;;;;;15.90;9.82;;;5.50;99.90;;;;;;5022247;28;20044;-75
2022/11/05 06:45:43;;;;;;;9.05;7.50;;;5.50;99.90;;;;;;5025813;28;20044;-76
2022/11/05 06:48:09;;;;;;;11.68;8.82;;;5.50;99.90;;;;;;5044510;28;20043;-75
2022/11/05 06:50:35;;;;;;;9.25;7.40;;;5.50;99.90;;;;;;5025564;28;20033;-76
2022/11/05 06:53:03;;;;;;;14.70;8.32;;;5.50;99.90;;;;;;5043904;28;20041;-74
2022/11/05 06:55:30;;;;;;;12.27;9.60;;;5.50;99.90;;;;;;5046089;28;20071;-78
2022/11/05 06:57:56;;;;;;;13.50;8.40;;;5.50;99.90;;;;;;5041848;28;20060;-74
2022/11/05 07:00:23;;;;;;;7.25;6.55;;;5.50;99.90;;;;;;5039900;28;20044;-77
2022/11/05 07:02:49;;;;;;;10.63;9.35;;;5.50;99.90;;;;;;5039045;28;20400;-78
2022/11/05 07:05:16;;;;;;;11.75;9.50;;;5.50;99.90;;;;;;5027507;28;20330;-78
2022/11/05 07:07:44;;;;;;;18.35;11.57;;;5.60;99.90;;;;;;5041351;28;20037;-77
2022/11/05 07:10:13;;;;;;;11.73;9.50;;;5.60;99.90;;;;;;5024100;28;20499;-78
2022/11/05 07:12:40;;;;;;;12.25;9.73;;;5.60;99.90;;;;;;5024262;28;20413;-77
2022/11/05 07:15:07;;;;;;;16.17;11.55;;;5.60;99.90;;;;;;5040754;28;20412;-78
2022/11/05 07:17:33;;;;;;;14.18;9.98;;;5.70;99.90;;;;;;5042133;28;20037;-75
2022/11/05 07:19:59;;;;;;;13.32;11.57;;;5.70;99.90;;;;;;5040291;28;20035;-78
2022/11/05 07:22:25;;;;;;;19.95;14.80;;;5.70;99.90;;;;;;5039006;28;20499;-76
2022/11/05 07:24:52;;;;;;;12.45;10.20;;;5.70;99.90;;;;;;5025548;28;20041;-77
2022/11/05 07:27:18;;;;;;;17.13;13.18;;;5.80;99.90;;;;;;5009569;28;20037;-76
2022/11/05 07:29:44;;;;;;;18.27;11.25;;;5.80;99.90;;;;;;5008174;28;20044;-77
2022/11/05 07:32:10;;;;;;;17.73;14.25;;;5.90;99.90;;;;;;5036407;28;20045;-75
2022/11/05 07:34:37;;;;;;;16.42;13.30;;;5.90;99.90;;;;;;5040236;28;20045;-75
2022/11/05 07:37:03;;;;;;;16.70;12.30;;;5.90;99.90;;;;;;5040227;28;20471;-77
2022/11/05 07:39:29;;;;;;;18.25;13.35;;;5.90;99.90;;;;;;5042036;28;20488;-76
2022/11/05 07:41:56;;;;;;;16.63;10.35;;;6.00;99.90;;;;;;5023643;28;20499;-77
2022/11/05 07:44:30;;;;;;;16.45;12.27;;;6.00;99.90;;;;;;5037200;28;20037;-76
2022/11/05 07:46:57;;;;;;;21.40;13.85;;;6.10;99.90;;;;;;5024345;28;20909;-78
2022/11/05 07:49:23;;;;;;;20.02;13.50;;;6.10;99.90;;;;;;5024834;28;20945;-77
2022/11/05 07:51:49;;;;;;;16.80;11.35;;;6.20;99.90;;;;;;5022053;28;20041;-78
2022/11/05 07:54:15;;;;;;;16.13;11.63;;;6.20;99.90;;;;;;5034549;28;20601;-78
2022/11/05 07:56:42;;;;;;;19.08;13.13;;;6.30;99.90;;;;;;5035638;28;20464;-78
2022/11/05 07:59:08;;;;;;;16.38;12.52;;;6.30;99.90;;;;;;5007368;28;20032;-75
2022/11/05 08:01:34;;;;;;;19.92;14.30;;;6.40;99.90;;;;;;5004964;28;20048;-76
2022/11/05 08:04:00;;;;;;;16.98;13.45;;;6.40;99.90;;;;;;5035629;28;20036;-76
2022/11/05 08:06:27;;;;;;;17.55;13.75;;;6.50;99.90;;;;;;5006833;28;20373;-75
2022/11/05 08:08:53;;;;;;;19.73;15.48;;;6.50;99.90;;;;;;5036897;28;20039;-78
2022/11/05 08:11:19;;;;;;;22.02;16.42;;;6.50;99.90;;;;;;5037282;28;20039;-78
2022/11/05 08:13:46;;;;;;;23.15;17.80;;;6.60;99.90;;;;;;5025056;28;20036;-77
2022/11/05 08:16:12;;;;;;;22.35;16.40;;;6.60;99.90;;;;;;5027268;28;20041;-77
2022/11/05 08:18:38;;;;;;;20.48;14.23;;;6.70;99.90;;;;;;5043625;28;20032;-75
2022/11/05 08:21:06;;;;;;;17.45;14.07;;;6.70;99.90;;;;;;5041670;28;20033;-78
2022/11/05 08:23:32;;;;;;;19.30;15.65;;;6.70;99.90;;;;;;5043850;28;20039;-75
2022/11/05 08:26:02;;;;;;;18.65;15.13;;;6.80;99.90;;;;;;5044384;28;20044;-75
2022/11/05 08:28:28;;;;;;;25.05;15.95;;;6.80;99.90;;;;;;5024144;28;20522;-76
2022/11/05 08:30:56;;;;;;;17.98;14.98;;;6.80;99.90;;;;;;5036440;28;20047;-78
2022/11/05 08:33:23;;;;;;;21.58;14.77;;;6.90;99.90;;;;;;5037702;28;20033;-76
2022/11/05 08:35:50;;;;;;;19.52;15.82;;;6.90;99.90;;;;;;5039268;28;20508;-76
2022/11/05 08:38:18;;;;;;;19.38;15.55;;;7.00;99.90;;;;;;5026808;28;20487;-75
2022/11/05 08:40:52;;;;;;;23.30;16.55;;;7.00;99.90;;;;;;5040387;28;20048;-75
2022/11/05 08:43:19;;;;;;;19.23;14.77;;;7.10;99.90;;;;;;5039900;28;20036;-75
2022/11/05 08:45:45;;;;;;;21.50;14.93;;;7.10;99.90;;;;;;5041427;28;20033;-76
2022/11/05 08:48:14;;;;;;;20.27;15.68;;;7.20;99.90;;;;;;5023549;28;20475;-78
2022/11/05 08:50:41;;;;;;;22.42;17.42;;;7.20;99.90;;;;;;5021029;28;20048;-79
2022/11/05 08:53:08;;;;;;;19.50;15.45;;;7.30;99.90;;;;;;5024866;28;20040;-77
2022/11/05 08:55:35;;;;;;;19.95;16.20;;;7.40;99.90;;;;;;5025387;28;20079;-76
2022/11/05 08:58:04;;;;;;;21.80;17.65;;;7.40;99.90;;;;;;5043688;28;20045;-76
2022/11/05 09:00:33;;;;;;;22.13;16.92;;;7.50;99.90;;;;;;5040068;28;20437;-76
2022/11/05 09:03:02;;;;;;;17.30;12.98;;;7.50;99.90;;;;;;5010043;28;20500;-76
2022/11/05 09:05:36;;;;;;;18.85;13.25;;;7.60;99.90;;;;;;5042915;28;20106;-77
2022/11/05 09:08:11;;;;;;;16.85;11.98;;;7.60;99.90;;;;;;5020789;28;20029;-77
2022/11/05 09:10:39;;;;;;;19.15;14.90;;;7.70;99.90;;;;;;5037580;28;20051;-76
2022/11/05 09:13:05;;;;;;;19.50;12.98;;;7.80;99.90;;;;;;5004118;28;20503;-75
2022/11/05 09:15:32;;;;;;;15.05;11.70;;;7.80;99.90;;;;;;5021218;28;20048;-77
2022/11/05 09:17:59;;;;;;;19.35;14.38;;;7.90;99.90;;;;;;5039986;28;20033;-76
2022/11/05 09:20:25;;;;;;;17.38;13.50;;;7.90;99.90;;;;;;5035750;28;20037;-75
2022/11/05 09:22:52;;;;;;;21.75;17.25;;;8.00;99.90;;;;;;5035631;28;20048;-77
2022/11/05 09:25:18;;;;;;;22.23;16.05;;;8.10;99.90;;;;;;5035675;28;20041;-78
2022/11/05 09:27:44;;;;;;;12.43;11.10;;;8.10;99.90;;;;;;5037416;28;20479;-76
2022/11/05 09:30:12;;;;;;;18.88;12.50;;;8.20;99.90;;;;;;5019735;28;20086;-78
2022/11/05 09:32:38;;;;;;;19.63;14.80;;;8.30;99.90;;;;;;5034595;28;20547;-79
2022/11/05 09:35:05;;;;;;;15.82;13.32;;;8.30;99.90;;;;;;5038094;28;20039;-80
2022/11/05 09:37:32;;;;;;;17.55;12.18;;;8.40;99.90;;;;;;5036457;28;20033;-75
2022/11/05 09:39:58;;;;;;;18.52;12.82;;;8.60;99.90;;;;;;5022088;28;20037;-75
2022/11/05 09:42:31;;;;;;;20.27;13.90;;;8.70;99.90;;;;;;5020520;28;20045;-77
2022/11/05 09:45:01;;;;;;;19.33;11.75;;;9.00;99.90;;;;;;5019088;28;20140;-76
2022/11/05 09:47:39;;;;;;;11.90;9.40;;;9.30;99.90;;;;;;5006306;28;20096;-76
2022/11/05 09:50:11;;;;;;;10.20;7.75;;;9.50;99.90;;;;;;5033857;28;20059;-76
2022/11/05 09:52:38;;;;;;;13.23;6.88;;;9.90;99.90;;;;;;5020118;28;20029;-77
2022/11/05 09:55:19;;;;;;;10.90;5.88;;;10.20;99.90;;;;;;5036767;28;20045;-79
2022/11/05 09:57:53;;;;;;;11.43;6.07;;;10.50;99.90;;;;;;5020661;28;20056;-77
2022/11/05 10:00:19;;;;;;;9.80;5.07;;;10.80;99.90;;;;;;5017047;28;20036;-77
2022/11/05 10:02:55;;;;;;;10.95;5.97;;;11.00;99.90;;;;;;5029161;28;20048;-76
2022/11/05 10:05:26;;;;;;;9.07;5.63;;;11.10;99.90;;;;;;5021216;28;20787;-75
2022/11/05 10:08:06;;;;;;;8.65;4.57;;;11.10;99.90;;;;;;5037143;28;20037;-75
2022/11/05 10:10:47;;;;;;;12.93;6.00;;;11.10;99.90;;;;;;5035781;28;20032;-73
2022/11/05 10:13:24;;;;;;;5.13;4.32;;;11.30;99.90;;;;;;5019746;28;20032;-77
2022/11/05 10:16:02;;;;;;;14.48;7.97;;;11.40;99.90;;;;;;5022573;28;20051;-78
2022/11/05 10:18:38;;;;;;;9.07;5.80;;;11.80;99.90;;;;;;5035772;28;20143;-75
2022/11/05 10:21:05;;;;;;;8.57;5.43;;;12.10;99.90;;;;;;5044256;28;20040;-77
2022/11/05 10:23:32;;;;;;;8.77;5.07;;;12.40;99.90;;;;;;5040901;28;20037;-75
2022/11/05 10:26:09;;;;;;;6.97;4.30;;;12.70;99.90;;;;;;5045668;28;20041;-74
2022/11/05 10:28:35;;;;;;;7.75;4.13;;;13.10;99.90;;;;;;5026280;28;20491;-76
2022/11/05 10:31:05;;;;;;;6.25;3.47;;;13.40;99.90;;;;;;5042563;28;20033;-77
2022/11/05 10:33:47;;;;;;;6.00;3.28;;;13.80;99.90;;;;;;5013628;28;20472;-77
2022/11/05 10:36:22;;;;;;;3.53;2.20;;;14.00;99.90;;;;;;5041188;28;20036;-77
2022/11/05 10:38:49;;;;;;;4.85;2.47;;;14.10;99.90;;;;;;5043049;28;20056;-78
2022/11/05 10:41:38;;;;;;;7.45;3.03;;;14.20;99.90;;;;;;5031047;28;20033;-77
2022/11/05 10:44:13;;;;;;;6.47;3.88;;;13.90;99.90;;;;;;5041681;28;20039;-75
2022/11/05 10:46:53;;;;;;;7.38;4.18;;;13.60;99.90;;;;;;5041191;28;20036;-76
2022/11/05 10:49:45;;;;;;;6.90;4.43;;;13.40;99.90;;;;;;5025160;28;20037;-77
2022/11/05 10:52:25;;;;;;;7.63;4.83;;;13.20;99.90;;;;;;5037492;28;20036;-75
2022/11/05 10:54:55;;;;;;;8.00;4.35;;;12.90;99.90;;;;;;5050546;28;20279;-76
2022/11/05 10:57:37;;;;;;;6.43;4.03;;;12.70;99.90;;;;;;5027282;28;20056;-76
2022/11/05 11:00:29;;;;;;;8.63;5.47;;;12.50;99.90;;;;;;5023015;28;20036;-74
2022/11/05 11:02:59;;;;;;;9.30;6.43;;;12.40;99.90;;;;;;5016709;28;20045;-76
2022/11/05 11:05:32;;;;;;;6.90;4.72;;;12.40;99.90;;;;;;5040282;28;20048;-76
2022/11/05 11:08:00;;;;;;;7.90;5.65;;;12.30;99.90;;;;;;5025166;28;20048;-75
2022/11/05 11:10:28;;;;;;;8.70;5.50;;;12.30;99.90;;;;;;5009267;28;20731;-77
2022/11/05 11:12:55;;;;;;;7.35;5.45;;;12.40;99.90;;;;;;5039865;28;20036;-76
2022/11/05 11:15:26;;;;;;;5.90;4.70;;;12.40;99.90;;;;;;5038595;28;20059;-77
2022/11/05 11:17:54;;;;;;;10.05;5.25;;;12.40;99.90;;;;;;5024881;28;20029;-76
2022/11/05 11:20:26;;;;;;;6.80;5.30;;;12.40;99.90;;;;;;5024408;28;20037;-75
2022/11/05 11:23:18;;;;;;;6.88;4.63;;;12.40;99.90;;;;;;5024776;28;20052;-77
2022/11/05 11:25:51;;;;;;;6.30;5.03;;;12.40;99.90;;;;;;5042119;28;20047;-77
2022/11/05 11:28:30;;;;;;;8.25;5.13;;;12.40;99.90;;;;;;5040244;28;20037;-76
2022/11/05 11:31:14;;;;;;;8.65;5.22;;;12.40;99.90;;;;;;5040209;28;20485;-76
2022/11/05 11:33:45;;;;;;;12.40;5.10;;;12.40;99.90;;;;;;5037025;28;20033;-76
2022/11/05 11:36:15;;;;;;;8.30;4.95;;;12.40;99.90;;;;;;5040832;28;20029;-77
2022/11/05 11:38:42;;;;;;;9.00;5.18;;;12.40;99.90;;;;;;5041356;28;20029;-75
2022/11/05 11:41:17;;;;;;;10.13;5.47;;;12.30;99.90;;;;;;5023608;28;20036;-76
2022/11/05 11:43:45;;;;;;;6.57;4.60;;;12.30;99.90;;;;;;5038958;28;20615;-78
2022/11/05 11:46:18;;;;;;;7.47;4.50;;;12.40;99.90;;;;;;5044734;28;20559;-77
2022/11/05 11:48:46;;;;;;;10.48;4.88;;;12.40;99.90;;;;;;5041886;28;20033;-75
2022/11/05 11:51:30;;;;;;;7.10;4.40;;;12.40;99.90;;;;;;5022994;28;20072;-76
2022/11/05 11:53:59;;;;;;;5.88;3.60;;;12.40;99.90;;;;;;5040521;28;20041;-76
2022/11/05 11:56:26;;;;;;;5.57;3.67;;;12.40;99.90;;;;;;5041502;28;20543;-78
2022/11/05 11:58:54;;;;;;;8.65;3.95;;;12.30;99.90;;;;;;5041089;28;20037;-77
2022/11/05 12:01:43;;;;;;;9.38;6.07;;;12.30;99.90;;;;;;5023358;28;20029;-78
2022/11/05 12:04:43;;;;;;;11.60;4.07;;;12.30;99.90;;;;;;5027584;28;20039;-76
2022/11/05 12:07:22;;;;;;;5.13;3.55;;;12.30;99.90;;;;;;5024651;28;20036;-76
2022/11/05 12:10:16;;;;;;;6.85;3.45;;;12.30;99.90;;;;;;5040033;28;20037;-81
2022/11/05 12:13:19;;;;;;;8.68;4.22;;;12.30;99.90;;;;;;5036722;28;20272;-76
2022/11/05 12:15:59;;;;;;;9.40;4.50;;;12.30;99.90;;;;;;5039000;28;20547;-76
2022/11/05 12:18:46;;;;;;;7.30;3.85;;;12.30;99.90;;;;;;5011216;28;20064;-78
2022/11/05 12:21:29;;;;;;;8.15;4.05;;;12.20;99.90;;;;;;5036585;28;20030;-75
2022/11/05 12:24:17;;;;;;;7.65;4.25;;;12.10;99.90;;;;;;5033790;28;20041;-77
2022/11/05 12:26:58;;;;;;;5.10;3.22;;;12.10;99.90;;;;;;5036172;28;20042;-77
2022/11/05 12:29:50;;;;;;;6.70;3.00;;;12.00;99.90;;;;;;5022856;28;20044;-77
2022/11/05 12:32:54;;;;;;;5.65;3.20;;;12.00;99.90;;;;;;5035677;28;20044;-77
2022/11/05 12:35:42;;;;;;;4.72;2.72;;;11.90;99.90;;;;;;5023932;28;20917;-76
2022/11/05 12:38:27;;;;;;;5.47;3.10;;;11.90;99.90;;;;;;5024304;28;20041;-75
2022/11/05 12:41:02;;;;;;;4.85;2.88;;;12.00;99.90;;;;;;5020112;28;20037;-76
2022/11/05 12:43:35;;;;;;;5.72;2.72;;;12.10;99.90;;;;;;5033713;28;20452;-78
2022/11/05 12:46:36;;;;;;;5.07;3.58;;;12.10;99.90;;;;;;5023939;28;20514;-83
2022/11/05 12:49:21;;;;;;;9.55;5.07;;;12.20;99.90;;;;;;5037219;28;20052;-77
2022/11/05 12:51:57;;;;;;;6.53;4.18;;;12.20;99.90;;;;;;5035952;28;20043;-76
2022/11/05 12:54:57;;;;;;;4.80;2.70;;;12.30;99.90;;;;;;5032345;28;20037;-77
2022/11/05 12:57:26;;;;;;;8.43;4.00;;;12.30;99.90;;;;;;5021900;28;20056;-78
2022/11/05 13:00:02;;;;;;;7.63;3.58;;;12.40;99.90;;;;;;5022110;28;20052;-79
2022/11/05 13:02:48;;;;;;;6.03;3.65;;;12.40;99.90;;;;;;5037272;28;20043;-75
2022/11/05 13:05:38;;;;;;;7.13;4.40;;;12.60;99.90;;;;;;5039407;28;20499;-76
2022/11/05 13:08:21;;;;;;;5.70;2.70;;;12.60;99.90;;;;;;5024821;28;20059;-75
2022/11/05 13:10:56;;;;;;;5.55;3.42;;;12.60;99.90;;;;;;5037996;28;20036;-76
2022/11/05 13:13:37;;;;;;;6.45;3.17;;;12.60;99.90;;;;;;5040052;28;20044;-74
2022/11/05 13:16:11;;;;;;;6.45;2.50;;;12.70;99.90;;;;;;5046962;28;20116;-76
2022/11/05 13:18:46;;;;;;;7.85;4.43;;;12.70;99.90;;;;;;5025626;28;20783;-74
2022/11/05 13:21:15;;;;;;;8.40;5.53;;;12.70;99.90;;;;;;5018948;28;20044;-75
2022/11/05 13:23:54;;;;;;;5.80;4.00;;;12.70;99.90;;;;;;5006973;28;20024;-76
2022/11/05 13:26:30;;;;;;;5.43;3.40;;;12.70;99.90;;;;;;5024783;28;20025;-76
2022/11/05 13:29:03;;;;;;;7.95;5.20;;;12.70;99.90;;;;;;5042483;28;20215;-74
2022/11/05 13:31:50;;;;;;;7.85;4.68;;;12.60;99.90;;;;;;5038521;28;20624;-76
2022/11/05 13:34:16;;;;;;;8.43;5.00;;;12.60;99.90;;;;;;5020476;28;20599;-77
2022/11/05 13:39:55;;;;;;;9.68;3.85;;;12.60;99.90;;;;;;5034106;28;20059;-73
2022/11/05 13:42:30;;;;;;;7.93;3.38;;;12.50;99.90;;;;;;5019425;28;20558;-76
2022/11/05 13:45:06;;;;;;;8.82;4.18;;;12.50;99.90;;;;;;5042326;28;20527;-76
2022/11/05 13:48:07;;;;;;;7.13;3.40;;;12.40;99.90;;;;;;5036448;28;20033;-75
2022/11/05 13:51:04;;;;;;;6.57;3.47;;;12.40;99.90;;;;;;5035814;28;20047;-75
2022/11/05 13:53:49;;;;;;;7.00;3.60;;;12.30;99.90;;;;;;5036046;28;20037;-74
2022/11/05 13:56:40;;;;;;;6.65;3.63;;;12.30;99.90;;;;;;5025006;28;20037;-77
2022/11/05 13:59:45;;;;;;;9.63;4.07;;;12.20;99.90;;;;;;5021859;28;20484;-76